createdAt,value
2017-08-15T00:00:40.958Z,57.99
2017-08-15T00:03:08.347Z,57.90
2017-08-15T00:05:35.740Z,58.17
2017-08-15T00:08:03.123Z,58.41
2017-08-15T00:10:30.511Z,58.52
2017-08-15T00:12:57.900Z,58.32
2017-08-15T00:15:25.286Z,58.42
2017-08-15T00:17:52.678Z,58.39
2017-08-15T00:20:20.078Z,58.72
2017-08-15T00:22:47.467Z,58.21
2017-08-15T00:25:14.866Z,58.48
2017-08-15T00:27:42.269Z,58.70
2017-08-15T00:30:09.655Z,58.20
2017-08-15T00:32:37.046Z,58.35
2017-08-15T00:35:04.450Z,58.36
2017-08-15T00:37:31.842Z,57.88
2017-08-15T00:39:59.246Z,57.94
2017-08-15T00:42:26.622Z,57.79
2017-08-15T00:44:54.023Z,57.72
2017-08-15T00:47:21.451Z,57.60
2017-08-15T00:49:48.830Z,57.95
2017-08-15T00:52:16.220Z,57.91
2017-08-15T00:54:43.816Z,57.90
2017-08-15T00:57:11.210Z,58.08
2017-08-15T00:59:38.596Z,58.13
2017-08-15T01:02:05.991Z,57.88
2017-08-15T01:04:33.383Z,57.95
2017-08-15T01:07:00.920Z,58.15
2017-08-15T01:09:28.307Z,57.85
2017-08-15T01:11:55.699Z,57.92
2017-08-15T01:14:23.082Z,58.11
2017-08-15T01:16:50.506Z,58.41
2017-08-15T01:19:17.898Z,58.38
2017-08-15T01:21:45.290Z,58.59
2017-08-15T01:24:12.687Z,58.44
2017-08-15T01:26:40.089Z,58.27
2017-08-15T01:29:07.462Z,58.54
2017-08-15T01:31:34.867Z,58.98
2017-08-15T01:34:02.256Z,59.31
2017-08-15T01:36:29.645Z,59.34
2017-08-15T01:38:57.051Z,59.78
2017-08-15T01:41:24.434Z,59.84
2017-08-15T01:43:51.840Z,60.19
2017-08-15T01:46:19.230Z,60.36
2017-08-15T01:48:46.631Z,60.22
2017-08-15T01:51:14.037Z,61.01
2017-08-15T01:53:41.470Z,60.73
2017-08-15T01:56:08.858Z,61.00
2017-08-15T01:58:36.259Z,61.46
2017-08-15T02:01:03.652Z,61.45
2017-08-15T02:03:31.044Z,61.54
2017-08-15T02:05:58.430Z,61.26
2017-08-15T02:08:25.822Z,61.20
2017-08-15T02:10:53.206Z,61.23
2017-08-15T02:13:20.608Z,60.88
2017-08-15T02:15:47.987Z,61.00
2017-08-15T02:18:15.383Z,61.51
2017-08-15T02:20:42.778Z,61.85
2017-08-15T02:23:10.174Z,61.69
2017-08-15T02:25:37.555Z,62.25
2017-08-15T02:28:04.958Z,62.26
2017-08-15T02:30:32.570Z,62.17
2017-08-15T02:32:59.975Z,62.34
2017-08-15T02:35:27.356Z,62.59
2017-08-15T02:37:54.764Z,62.41
2017-08-15T02:40:22.155Z,62.26
2017-08-15T02:42:49.538Z,62.31
2017-08-15T02:45:16.941Z,62.56
2017-08-15T02:47:44.324Z,62.60
2017-08-15T02:50:11.718Z,62.52
2017-08-15T02:52:39.106Z,62.36
2017-08-15T02:55:06.503Z,62.67
2017-08-15T02:57:33.894Z,62.79
2017-08-15T03:00:01.283Z,62.65
2017-08-15T03:02:28.673Z,62.15
2017-08-15T03:04:56.062Z,62.62
2017-08-15T03:07:23.449Z,62.50
2017-08-15T03:09:50.842Z,62.43
2017-08-15T03:12:18.241Z,62.41
2017-08-15T03:14:45.634Z,62.46
2017-08-15T03:17:13.034Z,62.60
2017-08-15T03:19:40.439Z,62.52
2017-08-15T03:22:07.830Z,62.61
2017-08-15T03:24:35.223Z,62.29
2017-08-15T03:27:02.618Z,62.27
2017-08-15T03:29:30.016Z,62.37
2017-08-15T03:31:57.407Z,62.53
2017-08-15T03:34:24.790Z,62.70
2017-08-15T03:36:52.191Z,62.55
2017-08-15T03:39:19.572Z,62.51
2017-08-15T03:41:46.962Z,62.80
2017-08-15T03:44:14.352Z,62.21
2017-08-15T03:46:41.743Z,62.01
2017-08-15T03:49:09.154Z,61.85
2017-08-15T03:51:36.755Z,62.06
2017-08-15T03:54:04.147Z,62.06
2017-08-15T03:56:31.543Z,61.85
2017-08-15T03:58:58.939Z,62.08
2017-08-15T04:01:26.327Z,62.09
2017-08-15T04:03:53.715Z,62.39
2017-08-15T04:06:21.105Z,62.26
2017-08-15T04:08:48.655Z,61.81
2017-08-15T04:11:16.276Z,62.11
2017-08-15T04:13:43.666Z,62.00
2017-08-15T04:16:11.051Z,61.90
2017-08-15T04:18:38.451Z,62.29
2017-08-15T04:21:05.835Z,62.52
2017-08-15T04:23:33.256Z,62.83
2017-08-15T04:26:00.649Z,63.08
2017-08-15T04:28:28.079Z,63.46
2017-08-15T04:30:55.539Z,63.54
2017-08-15T04:33:22.975Z,63.53
2017-08-15T04:35:50.379Z,63.76
2017-08-15T04:38:17.771Z,63.76
2017-08-15T04:40:45.163Z,64.43
2017-08-15T04:43:12.563Z,64.52
2017-08-15T04:45:40.164Z,64.76
2017-08-15T04:48:07.569Z,64.91
2017-08-15T04:50:34.955Z,65.30
2017-08-15T04:53:02.356Z,64.89
2017-08-15T04:55:29.736Z,65.24
2017-08-15T04:57:57.143Z,65.02
2017-08-15T05:00:24.535Z,65.26
2017-08-15T05:02:51.951Z,65.14
2017-08-15T05:05:19.340Z,65.62
2017-08-15T05:07:46.733Z,65.38
2017-08-15T05:10:14.146Z,65.17
2017-08-15T05:12:41.535Z,64.87
2017-08-15T05:15:08.931Z,65.02
2017-08-15T05:17:36.315Z,64.87
2017-08-15T05:20:03.707Z,64.92
2017-08-15T05:22:31.106Z,64.71
2017-08-15T05:24:58.506Z,65.02
2017-08-15T05:27:25.891Z,65.07
2017-08-15T05:29:53.518Z,65.23
2017-08-15T05:32:21.117Z,65.53
2017-08-15T05:34:48.507Z,65.30
2017-08-15T05:37:15.897Z,65.75
2017-08-15T05:39:43.498Z,65.52
2017-08-15T05:42:10.892Z,65.38
2017-08-15T05:44:38.287Z,65.58
2017-08-15T05:47:05.679Z,65.36
2017-08-15T05:49:33.073Z,65.72
2017-08-15T05:52:00.683Z,65.77
2017-08-15T05:54:28.127Z,65.66
2017-08-15T05:56:55.531Z,65.89
2017-08-15T05:59:22.929Z,65.73
2017-08-15T06:01:50.332Z,65.72
2017-08-15T06:04:17.744Z,65.59
2017-08-15T06:06:45.379Z,65.54
2017-08-15T06:09:12.771Z,65.68
2017-08-15T06:11:40.172Z,65.70
2017-08-15T06:14:07.861Z,65.47
2017-08-15T06:16:35.255Z,65.91
2017-08-15T06:19:02.651Z,65.23
2017-08-15T06:21:30.039Z,65.85
2017-08-15T06:23:57.646Z,65.74
2017-08-15T06:26:25.051Z,65.41
2017-08-15T06:28:52.442Z,64.97
2017-08-15T06:31:19.838Z,64.46
2017-08-15T06:33:47.227Z,64.61
2017-08-15T06:36:14.631Z,64.39
2017-08-15T06:38:42.006Z,64.44
2017-08-15T06:41:09.399Z,64.09
2017-08-15T06:43:36.792Z,64.22
2017-08-15T06:46:04.211Z,63.94
2017-08-15T06:48:31.633Z,63.12
2017-08-15T06:50:59.226Z,63.27
2017-08-15T06:53:26.840Z,63.03
2017-08-15T06:55:54.452Z,62.89
2017-08-15T06:58:21.859Z,62.76
2017-08-15T07:00:49.246Z,62.71
2017-08-15T07:03:16.638Z,62.87
2017-08-15T07:05:44.034Z,62.29
2017-08-15T07:08:11.441Z,61.88
2017-08-15T07:10:38.831Z,61.85
2017-08-15T07:13:06.447Z,61.05
2017-08-15T07:15:33.838Z,61.15
2017-08-15T07:18:01.263Z,60.01
2017-08-15T07:20:28.654Z,60.21
2017-08-15T07:22:56.066Z,59.77
2017-08-15T07:25:23.443Z,59.75
2017-08-15T07:27:50.839Z,60.01
2017-08-15T07:30:18.222Z,59.90
2017-08-15T07:32:45.626Z,59.83
2017-08-15T07:35:13.028Z,59.06
2017-08-15T07:37:40.439Z,58.56
2017-08-15T07:40:07.831Z,59.00
2017-08-15T07:42:35.231Z,58.98
2017-08-15T07:45:02.838Z,58.85
2017-08-15T07:47:30.235Z,58.36
2017-08-15T07:49:57.632Z,58.61
2017-08-15T07:52:25.035Z,58.21
2017-08-15T07:54:52.447Z,57.76
2017-08-15T07:57:19.851Z,57.66
2017-08-15T07:59:47.232Z,57.80
2017-08-15T08:02:14.639Z,57.80
2017-08-15T08:04:42.027Z,57.71
2017-08-15T08:07:09.627Z,57.37
2017-08-15T08:09:37.023Z,57.40
2017-08-15T08:12:04.412Z,57.55
2017-08-15T08:14:31.806Z,56.95
2017-08-15T08:17:00.197Z,56.91
2017-08-15T08:19:27.586Z,55.86
2017-08-15T08:21:54.987Z,56.71
2017-08-15T08:24:22.598Z,56.33
2017-08-15T08:26:49.984Z,55.63
2017-08-15T08:29:17.404Z,55.78
2017-08-15T08:31:44.791Z,55.82
2017-08-15T08:34:12.223Z,55.01
2017-08-15T08:36:39.638Z,55.45
2017-08-15T08:39:07.031Z,55.68
2017-08-15T08:41:34.422Z,55.54
2017-08-15T08:44:01.821Z,54.76
2017-08-15T08:46:29.220Z,54.67
2017-08-15T08:48:56.619Z,54.38
2017-08-15T08:51:24.021Z,54.60
2017-08-15T08:53:51.427Z,54.72
2017-08-15T08:56:18.827Z,54.01
2017-08-15T08:58:46.434Z,54.59
2017-08-15T09:01:13.843Z,54.36
2017-08-15T09:03:41.233Z,54.17
2017-08-15T09:06:08.633Z,53.40
2017-08-15T09:08:36.026Z,53.49
2017-08-15T09:11:03.419Z,53.10
2017-08-15T09:13:30.805Z,53.17
2017-08-15T09:15:58.207Z,53.53
2017-08-15T09:18:25.590Z,53.40
2017-08-15T09:20:53.019Z,53.37
2017-08-15T09:23:20.415Z,52.24
2017-08-15T09:25:47.825Z,52.20
2017-08-15T09:28:15.231Z,52.21
2017-08-15T09:30:42.619Z,52.48
2017-08-15T09:33:10.050Z,52.54
2017-08-15T09:35:37.416Z,52.33
2017-08-15T09:38:04.823Z,52.53
2017-08-15T09:40:32.215Z,52.58
2017-08-15T09:43:00.374Z,51.12
2017-08-15T09:45:27.770Z,51.55
2017-08-15T09:47:55.160Z,51.29
2017-08-15T09:50:22.557Z,52.10
2017-08-15T09:52:49.948Z,50.87
2017-08-15T09:55:17.558Z,50.29
2017-08-15T09:57:44.975Z,50.96
2017-08-15T10:00:12.359Z,51.21
2017-08-15T10:02:39.750Z,51.82
2017-08-15T10:05:07.147Z,50.85
2017-08-15T10:07:34.567Z,50.46
2017-08-15T10:10:01.946Z,50.50
2017-08-15T10:12:29.332Z,50.76
2017-08-15T10:14:56.734Z,49.92
2017-08-15T10:17:24.164Z,49.65
2017-08-15T10:19:51.568Z,48.61
2017-08-15T10:22:18.950Z,48.54
2017-08-15T10:24:46.561Z,50.06
2017-08-15T10:27:13.947Z,49.39
2017-08-15T10:29:41.347Z,50.22
2017-08-15T10:32:08.746Z,49.78
2017-08-15T10:34:36.135Z,49.88
2017-08-15T10:37:03.535Z,49.71
2017-08-15T10:39:30.955Z,49.69
2017-08-15T10:41:58.346Z,49.19
2017-08-15T10:44:25.771Z,49.90
2017-08-15T10:46:53.167Z,50.30
2017-08-15T10:49:20.572Z,49.89
2017-08-15T10:51:47.966Z,49.31
2017-08-15T10:54:15.368Z,49.63
2017-08-15T10:56:42.764Z,48.66
2017-08-15T10:59:10.183Z,48.67
2017-08-15T11:01:37.581Z,48.18
2017-08-15T11:04:04.983Z,48.47
2017-08-15T11:06:32.375Z,48.56
2017-08-15T11:08:59.770Z,48.25
2017-08-15T11:11:27.383Z,48.18
2017-08-15T11:13:54.775Z,47.76
2017-08-15T11:16:22.391Z,47.34
2017-08-15T11:18:49.778Z,47.45
2017-08-15T11:21:17.179Z,47.61
2017-08-15T11:23:44.571Z,47.48
2017-08-15T11:26:11.978Z,48.11
2017-08-15T11:28:39.363Z,47.84
2017-08-15T11:31:06.802Z,48.52
2017-08-15T11:33:34.387Z,47.45
2017-08-15T11:36:01.787Z,46.35
2017-08-15T11:38:29.186Z,47.16
2017-08-15T11:40:56.579Z,47.53
2017-08-15T11:43:23.976Z,47.24
2017-08-15T11:45:51.371Z,47.86
2017-08-15T11:48:18.763Z,47.77
2017-08-15T11:50:46.374Z,47.17
2017-08-15T11:53:13.776Z,46.69
2017-08-15T11:55:41.177Z,46.97
2017-08-15T11:58:08.568Z,47.19
2017-08-15T12:00:35.965Z,47.17
2017-08-15T12:03:03.356Z,47.25
2017-08-15T12:05:30.752Z,46.89
2017-08-15T12:07:58.143Z,47.66
2017-08-15T12:10:25.536Z,47.27
2017-08-15T12:12:52.947Z,47.25
2017-08-15T12:15:20.535Z,46.88
2017-08-15T12:17:47.941Z,47.42
2017-08-15T12:20:15.324Z,46.97
2017-08-15T12:22:42.727Z,47.01
2017-08-15T12:25:10.114Z,46.37
2017-08-15T12:27:37.517Z,46.33
2017-08-15T12:30:04.913Z,46.55
2017-08-15T12:32:32.311Z,46.26
2017-08-15T12:34:59.690Z,46.89
2017-08-15T12:37:27.103Z,46.19
2017-08-15T12:39:54.494Z,46.61
2017-08-15T12:42:21.917Z,46.03
2017-08-15T12:44:49.304Z,46.22
2017-08-15T12:47:16.710Z,46.17
2017-08-15T12:49:44.096Z,45.95
2017-08-15T12:52:11.517Z,45.61
2017-08-15T12:54:38.919Z,46.38
2017-08-15T12:57:06.327Z,46.21
2017-08-15T12:59:33.738Z,45.70
2017-08-15T13:02:01.146Z,46.60
2017-08-15T13:04:28.541Z,46.66
2017-08-15T13:06:55.948Z,45.98
2017-08-15T13:09:23.359Z,46.30
2017-08-15T13:11:50.759Z,45.60
2017-08-15T13:14:18.147Z,45.96
2017-08-15T13:16:45.543Z,45.13
2017-08-15T13:19:13.151Z,45.08
2017-08-15T13:21:40.541Z,46.51
2017-08-15T13:24:07.935Z,45.29
2017-08-15T13:26:35.327Z,45.43
2017-08-15T13:29:02.747Z,45.45
2017-08-15T13:31:30.356Z,45.54
2017-08-15T13:33:57.746Z,45.50
2017-08-15T13:36:25.153Z,46.04
2017-08-15T13:38:52.563Z,45.49
2017-08-15T13:41:19.961Z,45.79
2017-08-15T13:43:47.351Z,45.66
2017-08-15T13:46:14.965Z,46.31
2017-08-15T13:48:42.575Z,45.37
2017-08-15T13:51:09.982Z,45.21
2017-08-15T13:53:37.362Z,44.22
2017-08-15T13:56:04.760Z,42.10
2017-08-15T13:58:32.371Z,41.14
2017-08-15T14:00:59.764Z,40.90
2017-08-15T14:03:27.170Z,40.09
2017-08-15T14:05:54.565Z,41.47
2017-08-15T14:08:21.957Z,40.21
2017-08-15T14:10:49.352Z,40.72
2017-08-15T14:13:16.747Z,40.44
2017-08-15T14:15:44.156Z,40.18
2017-08-15T14:18:11.543Z,40.18
2017-08-15T14:20:38.939Z,41.09
2017-08-15T14:23:06.340Z,39.88
2017-08-15T14:25:33.752Z,39.02
2017-08-15T14:28:01.377Z,39.54
2017-08-15T14:30:28.763Z,40.27
2017-08-15T14:32:56.151Z,40.28
2017-08-15T14:35:23.534Z,40.20
2017-08-15T14:37:50.931Z,40.59
2017-08-15T14:40:18.338Z,40.75
2017-08-15T14:42:45.736Z,40.68
2017-08-15T14:45:13.127Z,40.97
2017-08-15T14:47:40.527Z,40.52
2017-08-15T14:50:07.940Z,40.50
2017-08-15T14:52:35.343Z,40.33
2017-08-15T14:55:02.736Z,40.17
2017-08-15T14:57:30.139Z,40.30
2017-08-15T14:59:57.548Z,41.35
2017-08-15T15:02:24.945Z,42.22
2017-08-15T15:04:52.352Z,41.42
2017-08-15T15:07:19.744Z,41.68
2017-08-15T15:09:47.140Z,41.37
2017-08-15T15:12:14.546Z,42.20
2017-08-15T15:14:41.928Z,41.28
2017-08-15T15:17:09.323Z,41.14
2017-08-15T15:19:36.718Z,41.42
2017-08-15T15:22:04.099Z,41.80
2017-08-15T15:24:31.499Z,41.52
2017-08-15T15:26:58.883Z,41.84
2017-08-15T15:29:26.286Z,41.16
2017-08-15T15:31:53.715Z,41.08
2017-08-15T15:34:21.115Z,42.19
2017-08-15T15:36:48.718Z,41.33
2017-08-15T15:39:16.125Z,42.33
2017-08-15T15:41:43.516Z,43.31
2017-08-15T15:44:10.919Z,42.34
2017-08-15T15:46:38.302Z,42.06
2017-08-15T15:49:05.694Z,42.64
2017-08-15T15:51:33.088Z,42.73
2017-08-15T15:54:01.297Z,42.38
2017-08-15T15:56:28.679Z,42.83
2017-08-15T15:58:56.079Z,42.60
2017-08-15T16:01:23.471Z,42.68
2017-08-15T16:03:50.863Z,42.79
2017-08-15T16:06:18.246Z,42.15
2017-08-15T16:08:45.646Z,42.34
2017-08-15T16:11:13.254Z,42.21
2017-08-15T16:13:40.663Z,42.60
2017-08-15T16:16:08.047Z,42.91
2017-08-15T16:18:35.656Z,43.22
2017-08-15T16:21:03.051Z,44.24
2017-08-15T16:23:30.515Z,43.77
2017-08-15T16:25:58.171Z,43.85
2017-08-15T16:28:25.602Z,44.21
2017-08-15T16:30:53.008Z,44.22
2017-08-15T16:33:20.420Z,44.81
2017-08-15T16:35:47.815Z,43.97
2017-08-15T16:38:15.220Z,44.32
2017-08-15T16:40:42.603Z,44.54
2017-08-15T16:43:10.278Z,44.49
2017-08-15T16:45:37.953Z,45.19
2017-08-15T16:48:05.737Z,45.13
2017-08-15T16:50:33.798Z,45.13
2017-08-15T16:53:01.660Z,45.18
2017-08-15T16:55:29.124Z,45.37
2017-08-15T16:57:56.722Z,45.21
2017-08-15T17:00:24.135Z,44.90
2017-08-15T17:02:51.534Z,44.95
2017-08-15T17:05:18.928Z,45.41
2017-08-15T17:07:46.337Z,47.12
2017-08-15T17:10:13.715Z,48.84
2017-08-15T17:12:41.130Z,50.45
2017-08-15T17:15:08.668Z,51.67
2017-08-15T17:17:36.055Z,52.19
2017-08-15T17:20:03.451Z,52.06
2017-08-15T17:22:30.859Z,52.86
2017-08-15T17:24:58.239Z,53.31
2017-08-15T17:27:25.656Z,57.25
2017-08-15T17:29:53.055Z,55.54
2017-08-15T17:32:20.467Z,58.18
2017-08-15T17:34:47.859Z,58.73
2017-08-15T17:37:15.276Z,61.14
2017-08-15T17:39:42.671Z,62.99
2017-08-15T17:42:10.073Z,64.06
2017-08-15T17:44:37.467Z,66.26
2017-08-15T17:47:04.863Z,67.45
2017-08-15T17:49:32.266Z,67.67
2017-08-15T17:51:59.659Z,68.22
2017-08-15T17:54:27.071Z,65.15
2017-08-15T17:56:54.482Z,65.25
2017-08-15T17:59:21.883Z,61.16
2017-08-15T18:01:49.283Z,62.54
2017-08-15T18:04:16.690Z,62.92
2017-08-15T18:06:44.076Z,62.16
2017-08-15T18:09:11.459Z,63.25
2017-08-15T18:11:38.860Z,63.05
2017-08-15T18:14:06.255Z,66.29
2017-08-15T18:16:33.655Z,68.04
2017-08-15T18:19:01.074Z,69.23
2017-08-15T18:21:28.468Z,69.65
2017-08-15T18:23:57.436Z,69.95
2017-08-15T18:26:24.840Z,70.34
2017-08-15T18:28:52.451Z,70.34
2017-08-15T18:31:19.844Z,70.57
2017-08-15T18:33:47.459Z,71.18
2017-08-15T18:36:14.847Z,71.50
2017-08-15T18:38:42.235Z,71.54
2017-08-15T18:41:09.639Z,72.18
2017-08-15T18:43:37.036Z,71.93
2017-08-15T18:46:04.456Z,71.23
2017-08-15T18:48:31.835Z,70.60
2017-08-15T18:50:59.235Z,70.65
2017-08-15T18:53:26.631Z,70.39
2017-08-15T18:55:54.023Z,70.22
2017-08-15T18:58:21.420Z,70.96
2017-08-15T19:00:48.824Z,72.00
2017-08-15T19:03:16.221Z,73.04
2017-08-15T19:05:43.629Z,73.64
2017-08-15T19:08:11.017Z,74.59
2017-08-15T19:10:38.407Z,74.09
2017-08-15T19:13:06.018Z,73.18
2017-08-15T19:15:33.415Z,73.14
2017-08-15T19:18:00.825Z,73.42
2017-08-15T19:20:28.443Z,74.29
2017-08-15T19:22:55.841Z,73.75
2017-08-15T19:25:23.233Z,73.54
2017-08-15T19:27:50.836Z,73.57
2017-08-15T19:30:18.234Z,73.56
2017-08-15T19:32:46.722Z,72.42
2017-08-15T19:35:14.144Z,72.90
2017-08-15T19:37:41.547Z,73.60
2017-08-15T19:40:08.995Z,72.37
2017-08-15T19:42:36.395Z,73.27
2017-08-15T19:45:03.783Z,73.36
2017-08-15T19:47:31.403Z,73.31
2017-08-15T19:49:58.795Z,73.03
2017-08-15T19:52:26.227Z,72.24
2017-08-15T19:54:53.616Z,72.49
2017-08-15T19:57:21.132Z,71.39
2017-08-15T19:59:48.511Z,70.96
2017-08-15T20:02:16.719Z,70.91
2017-08-15T20:04:44.108Z,70.54
2017-08-15T20:07:11.783Z,69.75
2017-08-15T20:09:39.167Z,69.60
2017-08-15T20:12:06.562Z,69.39
2017-08-15T20:14:33.968Z,69.90
2017-08-15T20:17:01.612Z,69.15
2017-08-15T20:19:29.045Z,68.76
2017-08-15T20:21:56.443Z,67.97
2017-08-15T20:24:23.896Z,67.36
2017-08-15T20:26:51.333Z,67.17
2017-08-15T20:29:18.730Z,66.51
2017-08-15T20:31:46.118Z,65.66
2017-08-15T20:34:13.538Z,65.12
2017-08-15T20:36:40.936Z,65.47
2017-08-15T20:39:08.331Z,65.24
2017-08-15T20:41:35.750Z,65.51
2017-08-15T20:44:03.142Z,66.44
2017-08-15T20:46:30.537Z,65.57
2017-08-15T20:48:57.951Z,66.07
2017-08-15T20:51:25.332Z,66.37
2017-08-15T20:53:52.730Z,66.30
2017-08-15T20:56:20.140Z,66.62
2017-08-15T20:58:47.536Z,65.96
2017-08-15T21:01:14.933Z,65.69
2017-08-15T21:03:42.341Z,64.78
2017-08-15T21:06:09.723Z,65.10
2017-08-15T21:08:37.335Z,65.64
2017-08-15T21:11:04.733Z,64.96
2017-08-15T21:13:32.143Z,64.89
2017-08-15T21:15:59.532Z,64.67
2017-08-15T21:18:26.924Z,64.42
2017-08-15T21:20:54.323Z,65.89
2017-08-15T21:23:21.727Z,66.41
2017-08-15T21:25:49.118Z,66.00
2017-08-15T21:28:16.525Z,65.98
2017-08-15T21:30:43.908Z,65.74
2017-08-15T21:33:11.650Z,67.52
2017-08-15T21:35:39.392Z,66.14
2017-08-15T21:38:07.237Z,66.26
2017-08-15T21:40:34.924Z,66.05
2017-08-15T21:43:02.606Z,66.74
2017-08-15T21:45:30.250Z,69.44
2017-08-15T21:47:57.659Z,67.92
2017-08-15T21:50:25.051Z,69.38
2017-08-15T21:52:52.451Z,69.16
2017-08-15T21:55:19.844Z,68.11
2017-08-15T21:57:47.226Z,69.84
2017-08-15T22:00:14.631Z,70.44
2017-08-15T22:02:42.010Z,69.19
2017-08-15T22:05:09.403Z,68.59
2017-08-15T22:07:36.790Z,68.34
2017-08-15T22:10:04.178Z,67.69
2017-08-15T22:12:31.582Z,67.69
2017-08-15T22:14:59.181Z,66.79
2017-08-15T22:17:26.579Z,66.52
2017-08-15T22:19:53.970Z,66.19
2017-08-15T22:22:21.359Z,65.80
2017-08-15T22:24:48.767Z,65.74
2017-08-15T22:27:16.151Z,65.47
2017-08-15T22:29:43.544Z,66.07
2017-08-15T22:32:11.156Z,65.15
2017-08-15T22:34:38.603Z,65.91
2017-08-15T22:37:06.224Z,65.53
2017-08-15T22:39:33.624Z,66.00
2017-08-15T22:42:01.022Z,66.14
2017-08-15T22:44:28.431Z,66.01
2017-08-15T22:46:55.823Z,65.62
2017-08-15T22:49:23.215Z,65.84
2017-08-15T22:51:50.636Z,65.88
2017-08-15T22:54:18.024Z,65.82
2017-08-15T22:56:45.417Z,66.07
2017-08-15T22:59:12.803Z,65.56
2017-08-15T23:01:40.192Z,66.14
2017-08-15T23:04:07.590Z,66.01
2017-08-15T23:06:34.996Z,66.16
2017-08-15T23:09:02.392Z,65.85
2017-08-15T23:11:29.783Z,66.65
2017-08-15T23:13:57.188Z,67.94
2017-08-15T23:16:24.578Z,67.64
2017-08-15T23:18:51.979Z,67.48
2017-08-15T23:21:19.368Z,67.34
2017-08-15T23:23:46.774Z,67.17
2017-08-15T23:26:14.160Z,67.26
2017-08-15T23:28:41.560Z,66.92
2017-08-15T23:31:08.951Z,66.72
2017-08-15T23:33:36.342Z,66.32
2017-08-15T23:36:03.734Z,66.34
2017-08-15T23:38:31.128Z,65.92
2017-08-15T23:40:58.510Z,65.59
2017-08-15T23:43:25.903Z,65.37
2017-08-15T23:45:53.295Z,65.05
2017-08-15T23:48:20.695Z,65.11
2017-08-15T23:50:48.079Z,65.12
2017-08-15T23:53:15.475Z,65.27
2017-08-15T23:55:42.867Z,65.16
2017-08-15T23:58:10.268Z,65.24
